sensor_id;sensor_type;location;lat;lon;timestamp;temperature;humidity
26575;DHT22;67165;50.256;10.978;2023-05-10T00:01:48;14.40;98.00
26575;DHT22;67165;50.256;10.978;2023-05-10T00:04:13;14.30;98.00
26575;DHT22;67165;50.256;10.978;2023-05-10T00:06:39;14.30;98.00
26575;DHT22;67165;50.256;10.978;2023-05-10T00:09:05;14.20;98.00
26575;DHT22;67165;50.256;10.978;2023-05-10T00:11:31;14.20;98.00
26575;DHT22;67165;50.256;10.978;2023-05-10T00:13:56;14.30;98.00
26575;DHT22;67165;50.256;10.978;2023-05-10T00:16:22;14.20;98.00
26575;DHT22;67165;50.256;10.978;2023-05-10T00:18:48;14.30;98.00
26575;DHT22;67165;50.256;10.978;2023-05-10T00:21:13;14.30;98.00
26575;DHT22;67165;50.256;10.978;2023-05-10T00:23:39;14.20;98.00
26575;DHT22;67165;50.256;10.978;2023-05-10T00:26:05;14.20;98.00
26575;DHT22;67165;50.256;10.978;2023-05-10T00:28:30;14.20;98.00
26575;DHT22;67165;50.256;10.978;2023-05-10T00:30:56;14.20;98.00
26575;DHT22;67165;50.256;10.978;2023-05-10T00:33:22;14.20;98.00
26575;DHT22;67165;50.256;10.978;2023-05-10T00:35:47;14.20;98.00
26575;DHT22;67165;50.256;10.978;2023-05-10T00:38:13;14.20;98.00
26575;DHT22;67165;50.256;10.978;2023-05-10T00:40:39;14.10;98.00
26575;DHT22;67165;50.256;10.978;2023-05-10T00:43:05;14.20;98.00
26575;DHT22;67165;50.256;10.978;2023-05-10T00:45:35;14.20;98.00
26575;DHT22;67165;50.256;10.978;2023-05-10T00:48:02;14.10;98.00
26575;DHT22;67165;50.256;10.978;2023-05-10T00:50:29;14.10;98.00
26575;DHT22;67165;50.256;10.978;2023-05-10T00:52:56;14.10;98.00
26575;DHT22;67165;50.256;10.978;2023-05-10T00:55:23;14.10;98.00
26575;DHT22;67165;50.256;10.978;2023-05-10T00:57:49;14.10;98.00
26575;DHT22;67165;50.256;10.978;2023-05-10T01:00:15;14.10;98.00
26575;DHT22;67165;50.256;10.978;2023-05-10T01:02:44;14.10;98.00
26575;DHT22;67165;50.256;10.978;2023-05-10T01:05:10;14.00;98.00
26575;DHT22;67165;50.256;10.978;2023-05-10T01:07:36;14.00;98.00
26575;DHT22;67165;50.256;10.978;2023-05-10T01:10:02;14.10;98.00
26575;DHT22;67165;50.256;10.978;2023-05-10T01:12:28;14.10;98.00
26575;DHT22;67165;50.256;10.978;2023-05-10T01:14:54;14.10;98.00
26575;DHT22;67165;50.256;10.978;2023-05-10T01:17:21;14.00;98.00
26575;DHT22;67165;50.256;10.978;2023-05-10T01:19:47;14.00;98.00
26575;DHT22;67165;50.256;10.978;2023-05-10T01:34:01;14.00;98.00
26575;DHT22;67165;50.256;10.978;2023-05-10T01:36:51;14.00;98.00
26575;DHT22;67165;50.256;10.978;2023-05-10T01:39:36;13.90;98.00
26575;DHT22;67165;50.256;10.978;2023-05-10T01:42:09;13.90;98.00
26575;DHT22;67165;50.256;10.978;2023-05-10T01:47:11;13.90;98.00
26575;DHT22;67165;50.256;10.978;2023-05-10T01:49:47;13.90;98.00
26575;DHT22;67165;50.256;10.978;2023-05-10T01:52:16;13.90;98.00
26575;DHT22;67165;50.256;10.978;2023-05-10T01:55:05;13.90;98.00
26575;DHT22;67165;50.256;10.978;2023-05-10T01:57:34;13.90;98.00
26575;DHT22;67165;50.256;10.978;2023-05-10T02:00:02;13.90;98.00
26575;DHT22;67165;50.256;10.978;2023-05-10T02:02:31;13.90;98.00
26575;DHT22;67165;50.256;10.978;2023-05-10T02:04:59;13.80;98.00
26575;DHT22;67165;50.256;10.978;2023-05-10T02:07:26;13.90;98.00
26575;DHT22;67165;50.256;10.978;2023-05-10T02:09:53;13.80;98.00
26575;DHT22;67165;50.256;10.978;2023-05-10T02:12:20;13.80;98.00
26575;DHT22;67165;50.256;10.978;2023-05-10T02:14:47;13.80;98.00
26575;DHT22;67165;50.256;10.978;2023-05-10T02:17:13;13.80;98.00
26575;DHT22;67165;50.256;10.978;2023-05-10T02:19:41;13.70;98.00
26575;DHT22;67165;50.256;10.978;2023-05-10T02:22:09;13.70;98.00
26575;DHT22;67165;50.256;10.978;2023-05-10T02:24:36;13.70;98.00
26575;DHT22;67165;50.256;10.978;2023-05-10T02:27:03;13.60;98.00
26575;DHT22;67165;50.256;10.978;2023-05-10T02:29:31;13.60;98.00
26575;DHT22;67165;50.256;10.978;2023-05-10T02:31:58;13.60;98.00
26575;DHT22;67165;50.256;10.978;2023-05-10T02:34:28;13.60;98.00
26575;DHT22;67165;50.256;10.978;2023-05-10T02:36:56;13.50;98.00
26575;DHT22;67165;50.256;10.978;2023-05-10T02:39:23;13.60;98.00
26575;DHT22;67165;50.256;10.978;2023-05-10T02:41:50;13.50;98.00
26575;DHT22;67165;50.256;10.978;2023-05-10T02:44:19;13.50;98.00
26575;DHT22;67165;50.256;10.978;2023-05-10T02:46:45;13.50;98.00
26575;DHT22;67165;50.256;10.978;2023-05-10T02:49:11;13.50;98.00
26575;DHT22;67165;50.256;10.978;2023-05-10T02:51:41;13.50;98.00
26575;DHT22;67165;50.256;10.978;2023-05-10T02:54:19;13.50;98.00
26575;DHT22;67165;50.256;10.978;2023-05-10T02:56:51;13.50;98.00
26575;DHT22;67165;50.256;10.978;2023-05-10T02:59:18;13.50;98.00
26575;DHT22;67165;50.256;10.978;2023-05-10T03:01:44;13.50;98.00
26575;DHT22;67165;50.256;10.978;2023-05-10T03:04:10;13.60;98.00
26575;DHT22;67165;50.256;10.978;2023-05-10T03:06:35;13.50;98.00
26575;DHT22;67165;50.256;10.978;2023-05-10T03:09:01;13.50;98.00
26575;DHT22;67165;50.256;10.978;2023-05-10T03:17:41;13.40;98.00
26575;DHT22;67165;50.256;10.978;2023-05-10T03:20:10;13.40;98.00
26575;DHT22;67165;50.256;10.978;2023-05-10T03:22:44;13.30;98.00
26575;DHT22;67165;50.256;10.978;2023-05-10T03:25:11;13.30;98.00
26575;DHT22;67165;50.256;10.978;2023-05-10T03:27:40;13.30;98.00
26575;DHT22;67165;50.256;10.978;2023-05-10T03:30:11;13.20;98.00
26575;DHT22;67165;50.256;10.978;2023-05-10T03:32:37;13.20;98.00
26575;DHT22;67165;50.256;10.978;2023-05-10T03:35:10;13.20;98.00
26575;DHT22;67165;50.256;10.978;2023-05-10T03:37:37;13.10;98.00
26575;DHT22;67165;50.256;10.978;2023-05-10T03:40:03;13.00;98.00
26575;DHT22;67165;50.256;10.978;2023-05-10T03:42:29;13.00;98.00
26575;DHT22;67165;50.256;10.978;2023-05-10T03:44:55;12.90;98.00
26575;DHT22;67165;50.256;10.978;2023-05-10T03:47:20;12.90;98.00
26575;DHT22;67165;50.256;10.978;2023-05-10T03:49:46;12.80;98.00
26575;DHT22;67165;50.256;10.978;2023-05-10T03:52:11;12.80;98.00
26575;DHT22;67165;50.256;10.978;2023-05-10T03:54:37;12.80;98.00
26575;DHT22;67165;50.256;10.978;2023-05-10T03:57:03;12.80;98.00
26575;DHT22;67165;50.256;10.978;2023-05-10T03:59:29;12.70;98.00
26575;DHT22;67165;50.256;10.978;2023-05-10T04:01:55;12.70;98.00
26575;DHT22;67165;50.256;10.978;2023-05-10T04:04:21;12.70;98.00
26575;DHT22;67165;50.256;10.978;2023-05-10T04:06:47;12.70;98.00
26575;DHT22;67165;50.256;10.978;2023-05-10T04:09:13;12.70;98.00
26575;DHT22;67165;50.256;10.978;2023-05-10T04:11:39;12.60;98.00
26575;DHT22;67165;50.256;10.978;2023-05-10T04:14:04;12.50;98.00
26575;DHT22;67165;50.256;10.978;2023-05-10T04:16:30;12.40;98.00
26575;DHT22;67165;50.256;10.978;2023-05-10T04:18:56;12.30;98.00
26575;DHT22;67165;50.256;10.978;2023-05-10T04:21:21;12.20;98.00
26575;DHT22;67165;50.256;10.978;2023-05-10T04:23:47;12.20;98.00
26575;DHT22;67165;50.256;10.978;2023-05-10T04:26:13;12.10;98.00
26575;DHT22;67165;50.256;10.978;2023-05-10T04:28:39;12.10;98.00
26575;DHT22;67165;50.256;10.978;2023-05-10T04:31:06;12.10;98.00
26575;DHT22;67165;50.256;10.978;2023-05-10T04:33:32;12.10;98.00
26575;DHT22;67165;50.256;10.978;2023-05-10T04:35:58;12.20;98.00
26575;DHT22;67165;50.256;10.978;2023-05-10T04:38:24;12.20;98.00
26575;DHT22;67165;50.256;10.978;2023-05-10T04:40:50;12.30;98.00
26575;DHT22;67165;50.256;10.978;2023-05-10T04:43:16;12.30;98.00
26575;DHT22;67165;50.256;10.978;2023-05-10T04:45:41;12.30;98.00
26575;DHT22;67165;50.256;10.978;2023-05-10T04:48:07;12.40;98.00
26575;DHT22;67165;50.256;10.978;2023-05-10T04:50:33;12.40;98.00
26575;DHT22;67165;50.256;10.978;2023-05-10T04:52:59;12.40;98.00
26575;DHT22;67165;50.256;10.978;2023-05-10T04:55:24;12.50;98.00
26575;DHT22;67165;50.256;10.978;2023-05-10T04:57:50;12.60;98.00
26575;DHT22;67165;50.256;10.978;2023-05-10T05:00:16;12.60;98.00
26575;DHT22;67165;50.256;10.978;2023-05-10T05:02:43;12.70;98.00
26575;DHT22;67165;50.256;10.978;2023-05-10T05:05:09;12.70;98.00
26575;DHT22;67165;50.256;10.978;2023-05-10T05:07:35;12.70;98.00
26575;DHT22;67165;50.256;10.978;2023-05-10T05:10:01;12.70;98.00
26575;DHT22;67165;50.256;10.978;2023-05-10T05:12:26;12.80;98.00
26575;DHT22;67165;50.256;10.978;2023-05-10T05:14:52;12.90;98.00
26575;DHT22;67165;50.256;10.978;2023-05-10T05:17:17;13.00;98.00
26575;DHT22;67165;50.256;10.978;2023-05-10T05:19:43;13.00;98.00
26575;DHT22;67165;50.256;10.978;2023-05-10T05:22:09;13.10;98.00
26575;DHT22;67165;50.256;10.978;2023-05-10T05:24:35;13.10;98.00
26575;DHT22;67165;50.256;10.978;2023-05-10T05:27:03;13.00;98.00
26575;DHT22;67165;50.256;10.978;2023-05-10T05:29:29;13.10;98.00
26575;DHT22;67165;50.256;10.978;2023-05-10T05:31:55;13.10;98.00
26575;DHT22;67165;50.256;10.978;2023-05-10T05:34:20;13.10;98.00
26575;DHT22;67165;50.256;10.978;2023-05-10T05:36:47;13.10;98.00
26575;DHT22;67165;50.256;10.978;2023-05-10T05:39:13;13.20;98.00
26575;DHT22;67165;50.256;10.978;2023-05-10T05:41:38;13.20;98.00
26575;DHT22;67165;50.256;10.978;2023-05-10T05:44:04;13.20;98.00
26575;DHT22;67165;50.256;10.978;2023-05-10T05:46:30;13.30;98.00
26575;DHT22;67165;50.256;10.978;2023-05-10T05:48:56;13.30;98.00
26575;DHT22;67165;50.256;10.978;2023-05-10T05:51:22;13.40;98.00
26575;DHT22;67165;50.256;10.978;2023-05-10T05:53:47;13.40;98.00
26575;DHT22;67165;50.256;10.978;2023-05-10T05:56:13;13.40;98.00
26575;DHT22;67165;50.256;10.978;2023-05-10T05:58:39;13.40;98.00
26575;DHT22;67165;50.256;10.978;2023-05-10T06:01:04;13.40;98.00
26575;DHT22;67165;50.256;10.978;2023-05-10T06:03:30;13.40;98.00
26575;DHT22;67165;50.256;10.978;2023-05-10T06:05:56;13.50;98.00
26575;DHT22;67165;50.256;10.978;2023-05-10T06:08:21;13.40;98.00
26575;DHT22;67165;50.256;10.978;2023-05-10T06:10:47;13.40;98.00
26575;DHT22;67165;50.256;10.978;2023-05-10T06:13:13;13.50;98.00
26575;DHT22;67165;50.256;10.978;2023-05-10T06:15:39;13.50;98.00
26575;DHT22;67165;50.256;10.978;2023-05-10T06:18:05;13.40;98.00
26575;DHT22;67165;50.256;10.978;2023-05-10T06:20:31;13.50;98.00
26575;DHT22;67165;50.256;10.978;2023-05-10T06:22:57;13.40;98.00
26575;DHT22;67165;50.256;10.978;2023-05-10T06:25:23;13.40;98.00
26575;DHT22;67165;50.256;10.978;2023-05-10T06:27:49;13.40;98.00
26575;DHT22;67165;50.256;10.978;2023-05-10T06:30:14;13.40;98.00
26575;DHT22;67165;50.256;10.978;2023-05-10T06:32:41;13.40;98.00
26575;DHT22;67165;50.256;10.978;2023-05-10T06:35:09;13.50;98.00
26575;DHT22;67165;50.256;10.978;2023-05-10T06:37:34;13.50;98.00
26575;DHT22;67165;50.256;10.978;2023-05-10T06:40:00;13.60;98.00
26575;DHT22;67165;50.256;10.978;2023-05-10T06:42:26;13.70;98.00
26575;DHT22;67165;50.256;10.978;2023-05-10T06:44:52;13.80;98.00
26575;DHT22;67165;50.256;10.978;2023-05-10T06:47:18;13.90;98.00
26575;DHT22;67165;50.256;10.978;2023-05-10T06:49:44;14.00;98.00
26575;DHT22;67165;50.256;10.978;2023-05-10T06:52:09;14.20;98.00
26575;DHT22;67165;50.256;10.978;2023-05-10T06:54:35;14.20;98.00
26575;DHT22;67165;50.256;10.978;2023-05-10T06:57:01;14.30;98.00
26575;DHT22;67165;50.256;10.978;2023-05-10T06:59:28;14.40;98.00
26575;DHT22;67165;50.256;10.978;2023-05-10T07:01:54;14.60;98.00
26575;DHT22;67165;50.256;10.978;2023-05-10T07:04:20;14.70;98.00
26575;DHT22;67165;50.256;10.978;2023-05-10T07:06:45;14.70;98.00
26575;DHT22;67165;50.256;10.978;2023-05-10T07:09:12;14.70;98.00
26575;DHT22;67165;50.256;10.978;2023-05-10T07:11:38;14.90;98.00
26575;DHT22;67165;50.256;10.978;2023-05-10T07:14:04;15.00;98.00
26575;DHT22;67165;50.256;10.978;2023-05-10T07:16:30;15.10;98.00
26575;DHT22;67165;50.256;10.978;2023-05-10T07:18:56;15.30;98.00
26575;DHT22;67165;50.256;10.978;2023-05-10T07:21:22;15.30;98.00
26575;DHT22;67165;50.256;10.978;2023-05-10T07:23:49;15.50;98.00
26575;DHT22;67165;50.256;10.978;2023-05-10T07:26:15;15.50;98.00
26575;DHT22;67165;50.256;10.978;2023-05-10T07:28:41;15.50;98.00
26575;DHT22;67165;50.256;10.978;2023-05-10T07:31:07;15.50;98.00
26575;DHT22;67165;50.256;10.978;2023-05-10T07:33:33;15.50;98.00
26575;DHT22;67165;50.256;10.978;2023-05-10T07:35:58;15.60;98.00
26575;DHT22;67165;50.256;10.978;2023-05-10T07:38:24;15.60;98.00
26575;DHT22;67165;50.256;10.978;2023-05-10T07:40:49;15.60;98.00
26575;DHT22;67165;50.256;10.978;2023-05-10T07:43:15;15.50;98.00
26575;DHT22;67165;50.256;10.978;2023-05-10T07:45:41;15.50;98.00
26575;DHT22;67165;50.256;10.978;2023-05-10T07:48:07;15.50;98.00
26575;DHT22;67165;50.256;10.978;2023-05-10T07:50:32;15.50;98.00
26575;DHT22;67165;50.256;10.978;2023-05-10T07:52:58;15.40;98.00
26575;DHT22;67165;50.256;10.978;2023-05-10T07:55:24;15.60;98.00
26575;DHT22;67165;50.256;10.978;2023-05-10T07:57:49;15.60;98.00
26575;DHT22;67165;50.256;10.978;2023-05-10T08:00:19;15.70;98.00
26575;DHT22;67165;50.256;10.978;2023-05-10T08:02:45;15.70;98.00
26575;DHT22;67165;50.256;10.978;2023-05-10T08:05:11;15.80;98.00
26575;DHT22;67165;50.256;10.978;2023-05-10T08:07:37;15.80;98.00
26575;DHT22;67165;50.256;10.978;2023-05-10T08:10:03;15.70;98.00
26575;DHT22;67165;50.256;10.978;2023-05-10T08:12:29;15.70;98.00
26575;DHT22;67165;50.256;10.978;2023-05-10T08:14:55;15.60;98.00
26575;DHT22;67165;50.256;10.978;2023-05-10T08:17:21;15.50;98.00
26575;DHT22;67165;50.256;10.978;2023-05-10T08:19:46;15.40;98.00
26575;DHT22;67165;50.256;10.978;2023-05-10T08:22:12;15.40;98.00
26575;DHT22;67165;50.256;10.978;2023-05-10T08:24:38;15.50;98.00
26575;DHT22;67165;50.256;10.978;2023-05-10T08:27:08;15.70;98.00
26575;DHT22;67165;50.256;10.978;2023-05-10T08:29:34;15.90;98.00
26575;DHT22;67165;50.256;10.978;2023-05-10T08:32:00;16.10;98.00
26575;DHT22;67165;50.256;10.978;2023-05-10T08:34:26;16.30;98.00
26575;DHT22;67165;50.256;10.978;2023-05-10T08:36:52;16.60;98.00
26575;DHT22;67165;50.256;10.978;2023-05-10T08:39:18;16.80;98.00
26575;DHT22;67165;50.256;10.978;2023-05-10T08:41:44;17.10;98.00
26575;DHT22;67165;50.256;10.978;2023-05-10T08:44:10;17.30;98.00
26575;DHT22;67165;50.256;10.978;2023-05-10T08:46:37;17.50;98.00
26575;DHT22;67165;50.256;10.978;2023-05-10T08:49:08;17.80;98.00
26575;DHT22;67165;50.256;10.978;2023-05-10T08:51:36;18.10;98.00
26575;DHT22;67165;50.256;10.978;2023-05-10T08:54:05;18.20;98.00
26575;DHT22;67165;50.256;10.978;2023-05-10T08:56:31;18.00;98.00
26575;DHT22;67165;50.256;10.978;2023-05-10T08:58:57;18.00;98.00
26575;DHT22;67165;50.256;10.978;2023-05-10T09:01:23;17.90;98.00
26575;DHT22;67165;50.256;10.978;2023-05-10T09:03:50;17.80;98.00
26575;DHT22;67165;50.256;10.978;2023-05-10T09:06:16;17.70;98.00
26575;DHT22;67165;50.256;10.978;2023-05-10T09:08:42;17.70;98.00
26575;DHT22;67165;50.256;10.978;2023-05-10T09:11:09;17.60;98.00
26575;DHT22;67165;50.256;10.978;2023-05-10T09:13:35;17.50;98.00
26575;DHT22;67165;50.256;10.978;2023-05-10T09:16:02;17.40;98.00
26575;DHT22;67165;50.256;10.978;2023-05-10T09:18:28;17.20;98.00
26575;DHT22;67165;50.256;10.978;2023-05-10T09:20:54;17.30;98.00
26575;DHT22;67165;50.256;10.978;2023-05-10T09:23:20;17.50;98.00
26575;DHT22;67165;50.256;10.978;2023-05-10T09:25:46;17.50;98.00
26575;DHT22;67165;50.256;10.978;2023-05-10T09:28:12;17.80;98.00
26575;DHT22;67165;50.256;10.978;2023-05-10T09:30:38;18.00;98.00
26575;DHT22;67165;50.256;10.978;2023-05-10T09:33:04;18.10;98.00
26575;DHT22;67165;50.256;10.978;2023-05-10T09:35:32;18.10;98.00
26575;DHT22;67165;50.256;10.978;2023-05-10T09:38:04;17.80;98.00
26575;DHT22;67165;50.256;10.978;2023-05-10T09:40:30;17.70;98.00
26575;DHT22;67165;50.256;10.978;2023-05-10T09:43:16;17.50;98.00
26575;DHT22;67165;50.256;10.978;2023-05-10T09:45:42;17.40;98.00
26575;DHT22;67165;50.256;10.978;2023-05-10T09:48:08;17.40;98.00
26575;DHT22;67165;50.256;10.978;2023-05-10T09:50:33;17.60;98.00
26575;DHT22;67165;50.256;10.978;2023-05-10T09:53:03;17.80;98.00
26575;DHT22;67165;50.256;10.978;2023-05-10T09:55:38;17.80;98.00
26575;DHT22;67165;50.256;10.978;2023-05-10T09:58:05;17.90;98.00
26575;DHT22;67165;50.256;10.978;2023-05-10T10:00:37;17.90;98.00
26575;DHT22;67165;50.256;10.978;2023-05-10T10:03:03;17.80;98.00
26575;DHT22;67165;50.256;10.978;2023-05-10T10:05:30;17.60;98.00
26575;DHT22;67165;50.256;10.978;2023-05-10T10:07:57;17.60;98.00
26575;DHT22;67165;50.256;10.978;2023-05-10T10:10:27;17.60;98.00
26575;DHT22;67165;50.256;10.978;2023-05-10T10:12:54;17.50;98.00
26575;DHT22;67165;50.256;10.978;2023-05-10T10:15:23;17.50;98.00
26575;DHT22;67165;50.256;10.978;2023-05-10T10:17:50;17.40;98.00
26575;DHT22;67165;50.256;10.978;2023-05-10T10:20:17;17.60;98.00
26575;DHT22;67165;50.256;10.978;2023-05-10T10:22:43;17.60;98.00
26575;DHT22;67165;50.256;10.978;2023-05-10T10:25:11;17.90;98.00
26575;DHT22;67165;50.256;10.978;2023-05-10T10:35:32;18.70;98.00
26575;DHT22;67165;50.256;10.978;2023-05-10T10:37:58;18.80;98.00
26575;DHT22;67165;50.256;10.978;2023-05-10T10:40:25;18.80;98.00
26575;DHT22;67165;50.256;10.978;2023-05-10T10:42:52;18.90;98.00
26575;DHT22;67165;50.256;10.978;2023-05-10T10:45:19;18.80;98.00
26575;DHT22;67165;50.256;10.978;2023-05-10T10:47:45;18.70;98.00
26575;DHT22;67165;50.256;10.978;2023-05-10T10:50:11;18.40;98.00
26575;DHT22;67165;50.256;10.978;2023-05-10T10:52:44;18.20;98.00
26575;DHT22;67165;50.256;10.978;2023-05-10T10:55:18;17.90;98.00
26575;DHT22;67165;50.256;10.978;2023-05-10T11:03:15;17.60;98.00
26575;DHT22;67165;50.256;10.978;2023-05-10T11:05:48;17.50;98.00
26575;DHT22;67165;50.256;10.978;2023-05-10T11:08:31;17.40;98.00
26575;DHT22;67165;50.256;10.978;2023-05-10T11:15:55;17.20;98.00
26575;DHT22;67165;50.256;10.978;2023-05-10T11:18:30;17.10;98.00
26575;DHT22;67165;50.256;10.978;2023-05-10T11:21:00;17.10;98.00
26575;DHT22;67165;50.256;10.978;2023-05-10T11:26:08;17.00;98.00
26575;DHT22;67165;50.256;10.978;2023-05-10T11:28:40;17.10;98.00
26575;DHT22;67165;50.256;10.978;2023-05-10T11:31:06;17.20;98.00
26575;DHT22;67165;50.256;10.978;2023-05-10T11:33:45;17.50;98.00
26575;DHT22;67165;50.256;10.978;2023-05-10T11:36:16;17.70;98.00
26575;DHT22;67165;50.256;10.978;2023-05-10T11:38:42;17.80;98.00
26575;DHT22;67165;50.256;10.978;2023-05-10T11:41:09;17.90;98.00
26575;DHT22;67165;50.256;10.978;2023-05-10T11:43:35;18.00;98.00
26575;DHT22;67165;50.256;10.978;2023-05-10T11:46:04;18.10;98.00
26575;DHT22;67165;50.256;10.978;2023-05-10T11:48:31;18.00;98.00
26575;DHT22;67165;50.256;10.978;2023-05-10T11:50:57;18.10;98.00
26575;DHT22;67165;50.256;10.978;2023-05-10T11:53:26;18.20;98.00
26575;DHT22;67165;50.256;10.978;2023-05-10T11:55:52;18.30;98.00
26575;DHT22;67165;50.256;10.978;2023-05-10T11:58:18;18.40;98.00
26575;DHT22;67165;50.256;10.978;2023-05-10T12:00:45;18.60;98.00
26575;DHT22;67165;50.256;10.978;2023-05-10T12:03:13;18.60;98.00
26575;DHT22;67165;50.256;10.978;2023-05-10T12:05:39;18.70;98.00
26575;DHT22;67165;50.256;10.978;2023-05-10T12:08:14;18.90;98.00
26575;DHT22;67165;50.256;10.978;2023-05-10T12:10:40;18.90;98.00
26575;DHT22;67165;50.256;10.978;2023-05-10T12:13:13;18.90;98.00
26575;DHT22;67165;50.256;10.978;2023-05-10T12:15:40;19.00;98.00
26575;DHT22;67165;50.256;10.978;2023-05-10T12:18:05;19.10;98.00
26575;DHT22;67165;50.256;10.978;2023-05-10T12:20:33;19.20;98.00
26575;DHT22;67165;50.256;10.978;2023-05-10T12:22:59;19.40;98.00
26575;DHT22;67165;50.256;10.978;2023-05-10T12:25:34;19.50;98.00
26575;DHT22;67165;50.256;10.978;2023-05-10T12:28:03;19.60;98.00
26575;DHT22;67165;50.256;10.978;2023-05-10T12:30:32;19.60;98.00
26575;DHT22;67165;50.256;10.978;2023-05-10T12:33:11;19.60;98.00
26575;DHT22;67165;50.256;10.978;2023-05-10T12:36:03;19.70;98.00
26575;DHT22;67165;50.256;10.978;2023-05-10T12:41:05;19.50;98.00
26575;DHT22;67165;50.256;10.978;2023-05-10T12:43:31;19.30;98.00
26575;DHT22;67165;50.256;10.978;2023-05-10T12:45:57;19.20;98.00
26575;DHT22;67165;50.256;10.978;2023-05-10T12:48:23;19.10;98.00
26575;DHT22;67165;50.256;10.978;2023-05-10T12:50:49;19.00;98.00
26575;DHT22;67165;50.256;10.978;2023-05-10T12:53:15;18.90;98.00
26575;DHT22;67165;50.256;10.978;2023-05-10T12:55:42;18.80;98.00
26575;DHT22;67165;50.256;10.978;2023-05-10T12:58:07;18.70;98.00
26575;DHT22;67165;50.256;10.978;2023-05-10T13:00:33;18.60;98.00
26575;DHT22;67165;50.256;10.978;2023-05-10T13:02:59;18.50;98.00
26575;DHT22;67165;50.256;10.978;2023-05-10T13:05:24;18.40;98.00
26575;DHT22;67165;50.256;10.978;2023-05-10T13:07:50;18.40;98.00
26575;DHT22;67165;50.256;10.978;2023-05-10T13:10:16;18.40;98.00
26575;DHT22;67165;50.256;10.978;2023-05-10T13:12:42;18.40;98.00
26575;DHT22;67165;50.256;10.978;2023-05-10T13:15:08;18.40;98.00
26575;DHT22;67165;50.256;10.978;2023-05-10T13:17:33;18.50;98.00
26575;DHT22;67165;50.256;10.978;2023-05-10T13:19:59;18.50;98.00
26575;DHT22;67165;50.256;10.978;2023-05-10T13:22:25;18.50;98.00
26575;DHT22;67165;50.256;10.978;2023-05-10T13:24:50;18.60;98.00
26575;DHT22;67165;50.256;10.978;2023-05-10T13:27:16;18.60;98.00
26575;DHT22;67165;50.256;10.978;2023-05-10T13:29:42;18.70;98.00
26575;DHT22;67165;50.256;10.978;2023-05-10T13:32:07;18.80;98.00
26575;DHT22;67165;50.256;10.978;2023-05-10T13:34:33;19.00;98.00
26575;DHT22;67165;50.256;10.978;2023-05-10T13:37:01;18.90;98.00
26575;DHT22;67165;50.256;10.978;2023-05-10T13:39:26;19.00;98.00
26575;DHT22;67165;50.256;10.978;2023-05-10T13:41:52;19.10;98.00
26575;DHT22;67165;50.256;10.978;2023-05-10T13:44:19;19.30;98.00
26575;DHT22;67165;50.256;10.978;2023-05-10T13:46:45;19.60;98.00
26575;DHT22;67165;50.256;10.978;2023-05-10T13:49:11;19.90;98.00
26575;DHT22;67165;50.256;10.978;2023-05-10T13:51:37;20.10;98.00
26575;DHT22;67165;50.256;10.978;2023-05-10T13:54:03;20.10;98.00
26575;DHT22;67165;50.256;10.978;2023-05-10T13:56:28;20.20;98.00
26575;DHT22;67165;50.256;10.978;2023-05-10T13:58:55;20.30;98.00
26575;DHT22;67165;50.256;10.978;2023-05-10T14:01:21;20.30;98.00
26575;DHT22;67165;50.256;10.978;2023-05-10T14:03:47;20.20;98.00
26575;DHT22;67165;50.256;10.978;2023-05-10T14:06:13;20.20;98.00
26575;DHT22;67165;50.256;10.978;2023-05-10T14:08:39;20.10;98.00
26575;DHT22;67165;50.256;10.978;2023-05-10T14:11:04;19.80;98.00
26575;DHT22;67165;50.256;10.978;2023-05-10T14:13:30;19.80;98.00
26575;DHT22;67165;50.256;10.978;2023-05-10T14:15:56;19.60;98.00
26575;DHT22;67165;50.256;10.978;2023-05-10T14:18:22;19.60;98.00
26575;DHT22;67165;50.256;10.978;2023-05-10T14:20:47;19.60;98.00
26575;DHT22;67165;50.256;10.978;2023-05-10T14:23:13;19.50;98.00
26575;DHT22;67165;50.256;10.978;2023-05-10T14:25:42;19.50;98.00
26575;DHT22;67165;50.256;10.978;2023-05-10T14:28:07;19.80;98.00
26575;DHT22;67165;50.256;10.978;2023-05-10T14:30:33;19.90;98.00
26575;DHT22;67165;50.256;10.978;2023-05-10T14:33:02;20.00;98.00
26575;DHT22;67165;50.256;10.978;2023-05-10T14:35:28;20.10;98.00
26575;DHT22;67165;50.256;10.978;2023-05-10T14:37:56;20.20;98.00
26575;DHT22;67165;50.256;10.978;2023-05-10T14:40:22;20.10;98.00
26575;DHT22;67165;50.256;10.978;2023-05-10T14:42:48;20.10;98.00
26575;DHT22;67165;50.256;10.978;2023-05-10T14:45:13;20.30;98.00
26575;DHT22;67165;50.256;10.978;2023-05-10T14:47:39;20.30;98.00
26575;DHT22;67165;50.256;10.978;2023-05-10T14:50:05;20.30;98.00
26575;DHT22;67165;50.256;10.978;2023-05-10T14:52:31;20.30;98.00
26575;DHT22;67165;50.256;10.978;2023-05-10T14:54:57;20.20;98.00
26575;DHT22;67165;50.256;10.978;2023-05-10T14:57:24;20.10;98.00
26575;DHT22;67165;50.256;10.978;2023-05-10T14:59:50;20.20;98.00
26575;DHT22;67165;50.256;10.978;2023-05-10T15:02:15;20.10;98.00
26575;DHT22;67165;50.256;10.978;2023-05-10T15:04:41;20.20;98.00
26575;DHT22;67165;50.256;10.978;2023-05-10T15:07:07;20.10;98.00
26575;DHT22;67165;50.256;10.978;2023-05-10T15:09:32;20.10;98.00
26575;DHT22;67165;50.256;10.978;2023-05-10T15:11:58;20.00;98.00
26575;DHT22;67165;50.256;10.978;2023-05-10T15:14:24;20.00;98.00
26575;DHT22;67165;50.256;10.978;2023-05-10T15:16:50;19.80;98.00
26575;DHT22;67165;50.256;10.978;2023-05-10T15:19:15;19.60;98.00
26575;DHT22;67165;50.256;10.978;2023-05-10T15:21:41;19.50;98.00
26575;DHT22;67165;50.256;10.978;2023-05-10T15:24:09;19.50;98.00
26575;DHT22;67165;50.256;10.978;2023-05-10T15:26:35;19.40;98.00
26575;DHT22;67165;50.256;10.978;2023-05-10T15:29:00;19.20;98.00
26575;DHT22;67165;50.256;10.978;2023-05-10T15:31:26;18.80;98.00
26575;DHT22;67165;50.256;10.978;2023-05-10T15:33:57;18.50;98.00
26575;DHT22;67165;50.256;10.978;2023-05-10T15:36:24;18.20;98.00
26575;DHT22;67165;50.256;10.978;2023-05-10T15:38:50;17.90;98.00
26575;DHT22;67165;50.256;10.978;2023-05-10T15:41:15;17.60;98.00
26575;DHT22;67165;50.256;10.978;2023-05-10T15:43:41;17.50;98.00
26575;DHT22;67165;50.256;10.978;2023-05-10T15:46:07;17.20;98.00
26575;DHT22;67165;50.256;10.978;2023-05-10T15:48:32;17.00;98.00
26575;DHT22;67165;50.256;10.978;2023-05-10T15:50:58;16.80;98.00
26575;DHT22;67165;50.256;10.978;2023-05-10T15:53:24;16.50;98.00
26575;DHT22;67165;50.256;10.978;2023-05-10T15:55:50;16.20;98.00
26575;DHT22;67165;50.256;10.978;2023-05-10T15:58:16;15.90;98.00